createdAt,value
2019-03-12T00:01:35.458Z,99.90
2019-03-12T00:04:03.320Z,99.90
2019-03-12T00:06:31.107Z,99.90
2019-03-12T00:08:58.915Z,99.90
2019-03-12T00:11:26.764Z,99.90
2019-03-12T00:13:54.656Z,99.90
2019-03-12T00:16:22.451Z,99.90
2019-03-12T00:18:50.334Z,99.90
2019-03-12T00:21:18.228Z,99.90
2019-03-12T00:23:46.038Z,99.90
2019-03-12T00:26:13.901Z,99.90
2019-03-12T00:28:41.703Z,99.90
2019-03-12T00:31:09.510Z,99.90
2019-03-12T00:33:37.344Z,99.90
2019-03-12T00:36:05.152Z,99.90
2019-03-12T00:38:33.027Z,99.90
2019-03-12T00:41:00.869Z,99.90
2019-03-12T00:43:28.685Z,99.90
2019-03-12T00:45:56.508Z,99.90
2019-03-12T00:48:24.375Z,99.90
2019-03-12T00:50:52.125Z,99.90
2019-03-12T00:53:20.028Z,99.90
2019-03-12T00:55:47.807Z,99.90
2019-03-12T00:58:15.590Z,99.90
2019-03-12T01:00:43.484Z,99.90
2019-03-12T01:03:11.313Z,99.90
2019-03-12T01:05:39.094Z,99.90
2019-03-12T01:08:06.922Z,99.90
2019-03-12T01:10:34.714Z,99.90
2019-03-12T01:13:14.301Z,99.90
2019-03-12T01:15:42.178Z,99.90
2019-03-12T01:18:09.997Z,99.90
2019-03-12T01:20:37.819Z,99.90
2019-03-12T01:23:06.098Z,99.90
2019-03-12T01:25:33.912Z,99.90
2019-03-12T01:28:01.793Z,99.90
2019-03-12T01:30:29.567Z,99.90
2019-03-12T01:32:57.380Z,99.90
2019-03-12T01:35:25.260Z,99.90
2019-03-12T01:37:53.045Z,99.90
2019-03-12T01:40:20.961Z,99.90
2019-03-12T01:42:48.866Z,99.90
2019-03-12T01:45:16.691Z,99.90
2019-03-12T01:47:44.566Z,99.90
2019-03-12T01:50:12.630Z,99.90
2019-03-12T01:52:40.445Z,99.90
2019-03-12T01:55:08.932Z,99.90
2019-03-12T01:57:36.785Z,99.90
2019-03-12T02:00:05.627Z,99.90
2019-03-12T02:02:33.518Z,99.90
2019-03-12T02:05:01.330Z,99.90
2019-03-12T02:07:29.122Z,99.90
2019-03-12T02:09:56.950Z,99.90
2019-03-12T02:12:24.730Z,99.90
2019-03-12T02:14:52.618Z,99.90
2019-03-12T02:17:20.396Z,99.90
2019-03-12T02:19:48.478Z,99.90
2019-03-12T02:22:16.416Z,99.90
2019-03-12T02:24:52.615Z,99.90
2019-03-12T02:27:13.841Z,99.90
2019-03-12T02:29:41.690Z,99.90
2019-03-12T02:32:09.538Z,99.90
2019-03-12T02:34:37.305Z,99.90
2019-03-12T02:37:05.457Z,99.90
2019-03-12T02:39:33.245Z,99.90
2019-03-12T02:42:01.048Z,99.90
2019-03-12T02:44:28.919Z,99.90
2019-03-12T02:46:57.042Z,99.90
2019-03-12T02:49:25.013Z,99.90
2019-03-12T02:51:52.773Z,99.90
2019-03-12T02:54:20.567Z,99.90
2019-03-12T02:56:48.453Z,99.90
2019-03-12T02:59:16.248Z,99.90
2019-03-12T03:01:44.069Z,99.90
2019-03-12T03:04:11.960Z,99.90
2019-03-12T03:06:53.605Z,99.90
2019-03-12T03:09:21.454Z,99.90
2019-03-12T03:11:51.011Z,99.90
2019-03-12T03:14:34.818Z,99.90
2019-03-12T03:17:06.325Z,99.90
2019-03-12T03:19:34.146Z,99.90
2019-03-12T03:22:02.024Z,99.90
2019-03-12T03:24:29.841Z,99.90
2019-03-12T03:26:57.652Z,99.90
2019-03-12T03:29:25.528Z,99.90
2019-03-12T03:31:53.331Z,99.90
2019-03-12T03:34:27.448Z,99.90
2019-03-12T03:36:51.092Z,99.90
2019-03-12T03:39:18.884Z,99.90
2019-03-12T03:41:46.749Z,99.90
2019-03-12T03:44:14.602Z,99.90
2019-03-12T03:46:42.413Z,99.90
2019-03-12T03:49:10.270Z,99.90
2019-03-12T03:51:38.067Z,99.90
2019-03-12T03:54:05.880Z,99.90
2019-03-12T03:56:33.776Z,99.90
2019-03-12T03:59:01.661Z,99.90
2019-03-12T04:01:30.055Z,99.90
2019-03-12T04:03:57.946Z,99.90
2019-03-12T04:06:25.845Z,99.90
2019-03-12T04:08:53.706Z,99.90
2019-03-12T04:11:21.514Z,99.90
2019-03-12T04:13:49.301Z,99.90
2019-03-12T04:16:17.146Z,99.90
2019-03-12T04:18:44.957Z,99.90
2019-03-12T04:21:12.763Z,99.90
2019-03-12T04:23:40.637Z,99.90
2019-03-12T04:26:08.759Z,99.90
2019-03-12T04:28:36.576Z,99.90
2019-03-12T04:31:04.393Z,99.90
2019-03-12T04:34:08.064Z,99.90
2019-03-12T04:36:35.942Z,99.90
2019-03-12T04:39:05.471Z,99.90
2019-03-12T04:41:33.260Z,99.90
2019-03-12T04:44:01.182Z,99.90
2019-03-12T04:46:29.021Z,99.90
2019-03-12T04:48:57.063Z,99.90
2019-03-12T04:51:24.889Z,99.90
2019-03-12T04:53:53.099Z,99.90
2019-03-12T04:56:20.870Z,99.90
2019-03-12T04:58:48.755Z,99.90
2019-03-12T05:01:16.703Z,99.90
2019-03-12T05:03:44.574Z,99.90
2019-03-12T05:06:12.650Z,99.90
2019-03-12T05:08:40.490Z,99.90
2019-03-12T05:11:08.286Z,99.90
2019-03-12T05:13:36.123Z,99.90
2019-03-12T05:16:03.944Z,99.90
2019-03-12T05:18:31.814Z,99.90
2019-03-12T05:20:59.644Z,99.90
2019-03-12T05:23:27.422Z,99.90
2019-03-12T05:25:55.264Z,99.90
2019-03-12T05:28:23.078Z,99.90
2019-03-12T05:30:50.966Z,99.90
2019-03-12T05:33:18.775Z,99.90
2019-03-12T05:35:46.592Z,99.90
2019-03-12T05:38:14.486Z,99.90
2019-03-12T05:40:42.283Z,99.90
2019-03-12T05:43:10.076Z,99.90
2019-03-12T05:45:37.953Z,99.90
2019-03-12T05:48:05.786Z,99.90
2019-03-12T05:50:33.572Z,99.90
2019-03-12T05:53:10.909Z,99.90
2019-03-12T05:55:38.686Z,99.90
2019-03-12T05:58:07.066Z,99.90
2019-03-12T06:00:34.849Z,99.90
2019-03-12T06:03:02.684Z,99.90
2019-03-12T06:05:30.544Z,99.90
2019-03-12T06:07:58.341Z,99.90
2019-03-12T06:10:26.166Z,99.90
2019-03-12T06:12:54.003Z,99.90
2019-03-12T06:15:21.810Z,99.90
2019-03-12T06:17:49.685Z,99.90
2019-03-12T06:20:17.608Z,99.90
2019-03-12T06:22:45.710Z,99.90
2019-03-12T06:25:13.751Z,99.90
2019-03-12T06:27:41.606Z,99.90
2019-03-12T06:30:10.417Z,99.90
2019-03-12T06:32:53.729Z,99.90
2019-03-12T06:35:32.164Z,99.90
2019-03-12T06:38:27.549Z,99.90
2019-03-12T06:41:03.023Z,99.90
2019-03-12T06:43:49.279Z,99.90
2019-03-12T06:46:51.534Z,99.90
2019-03-12T06:49:34.752Z,99.90
2019-03-12T06:52:30.683Z,99.90
2019-03-12T06:55:18.001Z,99.90
2019-03-12T06:58:42.158Z,99.90
2019-03-12T07:01:27.928Z,99.90
2019-03-12T07:04:21.137Z,99.90
2019-03-12T07:07:12.858Z,99.90
2019-03-12T07:10:12.044Z,99.90
2019-03-12T07:13:08.014Z,99.90
2019-03-12T07:15:52.981Z,99.90
2019-03-12T07:18:42.938Z,99.90
2019-03-12T07:21:24.054Z,99.90
2019-03-12T07:24:20.341Z,99.90
2019-03-12T07:27:04.018Z,99.90
2019-03-12T07:29:42.562Z,99.90
2019-03-12T07:32:38.729Z,99.90
2019-03-12T07:35:41.473Z,99.90
2019-03-12T07:38:27.446Z,99.90
2019-03-12T07:41:28.550Z,99.90
2019-03-12T07:44:06.524Z,99.90
2019-03-12T07:46:45.716Z,99.90
2019-03-12T07:49:31.299Z,99.90
2019-03-12T07:52:08.745Z,99.90
2019-03-12T07:55:01.955Z,99.90
2019-03-12T07:57:47.610Z,99.90
2019-03-12T08:00:46.514Z,99.90
2019-03-12T08:03:33.835Z,99.90
2019-03-12T08:06:23.971Z,99.90
2019-03-12T08:09:13.858Z,99.90
2019-03-12T08:11:56.172Z,99.90
2019-03-12T08:14:55.434Z,99.90
2019-03-12T08:17:29.408Z,99.90
2019-03-12T08:20:19.460Z,99.90
2019-03-12T08:22:56.056Z,99.90
2019-03-12T08:25:38.598Z,99.90
2019-03-12T08:28:28.450Z,99.90
2019-03-12T08:31:04.789Z,99.90
2019-03-12T08:33:50.621Z,99.90
2019-03-12T08:36:25.978Z,99.90
2019-03-12T08:39:07.649Z,99.90
2019-03-12T08:41:49.801Z,99.90
2019-03-12T08:44:37.466Z,99.90
2019-03-12T08:47:19.156Z,99.90
2019-03-12T08:50:04.714Z,99.90
2019-03-12T08:53:03.731Z,99.90
2019-03-12T08:55:45.044Z,99.90
2019-03-12T08:58:30.555Z,99.90
2019-03-12T09:01:23.449Z,99.90
2019-03-12T09:04:13.306Z,99.90
2019-03-12T09:07:00.605Z,99.90
2019-03-12T09:09:46.471Z,99.90
2019-03-12T09:12:26.606Z,99.90
2019-03-12T09:15:16.556Z,99.90
2019-03-12T09:18:02.140Z,99.90
2019-03-12T09:20:43.519Z,99.90
2019-03-12T09:23:27.376Z,99.40
2019-03-12T09:26:20.584Z,99.90
2019-03-12T09:28:59.073Z,99.90
2019-03-12T09:31:48.916Z,99.90
2019-03-12T09:34:34.799Z,98.90
2019-03-12T09:37:33.964Z,98.50
2019-03-12T09:40:32.053Z,98.60
2019-03-12T09:43:18.159Z,98.80
2019-03-12T09:46:06.902Z,99.70
2019-03-12T09:48:54.264Z,99.90
2019-03-12T09:51:38.933Z,99.90
2019-03-12T09:54:26.291Z,99.90
2019-03-12T09:57:24.617Z,95.80
2019-03-12T10:00:16.006Z,97.30
2019-03-12T10:02:54.084Z,93.90
2019-03-12T10:05:31.042Z,94.30
2019-03-12T10:08:24.096Z,94.40
2019-03-12T10:11:11.386Z,95.90
2019-03-12T10:13:47.023Z,96.10
2019-03-12T10:16:32.798Z,96.00
2019-03-12T10:19:10.231Z,95.20
2019-03-12T10:21:56.026Z,92.80
2019-03-12T10:24:40.127Z,93.00
2019-03-12T10:27:25.350Z,91.50
2019-03-12T10:30:21.562Z,90.60
2019-03-12T10:33:01.195Z,91.40
2019-03-12T10:35:39.547Z,91.40
2019-03-12T10:38:59.432Z,90.80
2019-03-12T10:41:36.924Z,91.90
2019-03-12T10:44:15.489Z,91.60
2019-03-12T10:46:48.469Z,89.70
2019-03-12T10:49:16.340Z,88.80
2019-03-12T10:51:44.118Z,88.20
2019-03-12T10:54:12.016Z,84.20
2019-03-12T10:56:39.807Z,80.70
2019-03-12T10:59:07.588Z,79.20
2019-03-12T11:01:35.432Z,79.60
2019-03-12T11:04:03.250Z,81.70
2019-03-12T11:06:31.044Z,81.90
2019-03-12T11:08:58.878Z,84.50
2019-03-12T11:11:26.673Z,78.80
2019-03-12T11:13:54.479Z,77.30
2019-03-12T11:16:22.322Z,81.20
2019-03-12T11:18:50.119Z,75.30
2019-03-12T11:21:17.936Z,76.50
2019-03-12T11:23:45.815Z,75.40
2019-03-12T11:26:13.621Z,71.10
2019-03-12T11:28:41.440Z,72.30
2019-03-12T11:31:09.275Z,70.90
2019-03-12T11:33:37.073Z,71.00
2019-03-12T11:36:04.947Z,68.50
2019-03-12T11:38:32.783Z,68.50
2019-03-12T11:41:00.937Z,67.10
2019-03-12T11:43:29.051Z,64.90
2019-03-12T11:45:56.896Z,64.50
2019-03-12T11:48:24.778Z,67.10
2019-03-12T11:50:52.761Z,61.60
2019-03-12T11:53:20.568Z,69.00
2019-03-12T11:55:48.362Z,74.20
2019-03-12T11:58:16.245Z,72.20
2019-03-12T12:00:55.734Z,73.70
2019-03-12T12:03:23.619Z,74.00
2019-03-12T12:05:51.434Z,77.30
2019-03-12T12:08:19.239Z,75.40
2019-03-12T12:10:47.092Z,75.40
2019-03-12T12:13:14.873Z,76.10
2019-03-12T12:15:42.715Z,74.30
2019-03-12T12:18:10.638Z,76.10
2019-03-12T12:20:38.434Z,74.40
2019-03-12T12:23:06.293Z,73.90
2019-03-12T12:25:34.214Z,76.00
2019-03-12T12:28:02.014Z,76.00
2019-03-12T12:30:29.849Z,75.20
2019-03-12T12:32:57.667Z,75.90
2019-03-12T12:35:25.539Z,77.70
2019-03-12T12:37:53.361Z,75.90
2019-03-12T12:40:21.268Z,73.10
2019-03-12T12:42:49.441Z,74.60
2019-03-12T12:45:18.236Z,76.00
2019-03-12T12:47:46.041Z,76.30
2019-03-12T12:50:14.701Z,76.30
2019-03-12T12:52:42.631Z,76.00
2019-03-12T12:55:11.635Z,79.20
2019-03-12T12:57:39.597Z,77.80
2019-03-12T13:00:11.262Z,74.50
2019-03-12T13:02:39.069Z,75.10
2019-03-12T13:05:06.925Z,73.60
2019-03-12T13:07:34.704Z,74.00
2019-03-12T13:10:02.486Z,72.20
2019-03-12T13:12:30.326Z,75.50
2019-03-12T13:14:58.134Z,72.00
2019-03-12T13:17:25.979Z,69.30
2019-03-12T13:19:53.921Z,70.00
2019-03-12T13:22:21.857Z,72.70
2019-03-12T13:24:49.766Z,69.90
2019-03-12T13:27:17.545Z,71.90
2019-03-12T13:29:45.342Z,72.00
2019-03-12T13:32:13.996Z,70.90
2019-03-12T13:34:41.982Z,71.10
2019-03-12T13:37:09.847Z,69.80
2019-03-12T13:39:37.649Z,70.00
2019-03-12T13:42:05.450Z,67.40
2019-03-12T13:44:33.291Z,66.60
2019-03-12T13:47:01.142Z,68.30
2019-03-12T13:49:28.942Z,67.20
2019-03-12T13:51:56.843Z,70.20
2019-03-12T13:54:24.861Z,67.50
2019-03-12T13:56:52.770Z,73.60
2019-03-12T13:59:20.703Z,76.90
2019-03-12T14:01:48.512Z,72.00
2019-03-12T14:04:16.338Z,69.10
2019-03-12T14:06:44.276Z,61.60
2019-03-12T14:09:12.074Z,68.40
2019-03-12T14:11:39.887Z,61.40
2019-03-12T14:14:07.816Z,49.40
2019-03-12T14:16:35.614Z,42.90
2019-03-12T14:19:03.567Z,43.80
2019-03-12T14:21:37.446Z,41.00
2019-03-12T14:24:05.533Z,40.80
2019-03-12T14:26:33.302Z,40.40
2019-03-12T14:29:01.211Z,39.70
2019-03-12T14:31:29.205Z,38.90
2019-03-12T14:33:57.027Z,39.00
2019-03-12T14:36:24.948Z,38.70
2019-03-12T14:38:52.854Z,38.00
2019-03-12T14:41:20.753Z,38.20
2019-03-12T14:43:48.750Z,37.40
2019-03-12T14:46:16.972Z,38.50
2019-03-12T14:48:46.775Z,39.10
2019-03-12T14:51:30.170Z,37.20
2019-03-12T14:53:58.140Z,37.70
2019-03-12T14:56:27.953Z,37.80
2019-03-12T14:58:56.040Z,36.40
2019-03-12T15:01:24.131Z,35.80
2019-03-12T15:03:52.104Z,34.10
2019-03-12T15:06:19.930Z,33.80
2019-03-12T15:08:48.114Z,35.60
2019-03-12T15:11:15.986Z,35.20
2019-03-12T15:13:43.777Z,34.70
2019-03-12T15:16:11.645Z,34.90
2019-03-12T15:18:39.448Z,35.60
2019-03-12T15:21:07.499Z,35.50
2019-03-12T15:23:35.394Z,35.60
2019-03-12T15:26:03.279Z,36.10
2019-03-12T15:28:31.311Z,35.60
2019-03-12T15:31:02.054Z,36.20
2019-03-12T15:33:28.956Z,36.20
2019-03-12T15:35:56.805Z,36.20
2019-03-12T15:38:24.754Z,35.70
2019-03-12T15:40:54.308Z,35.40
2019-03-12T15:43:22.422Z,35.10
2019-03-12T15:45:50.231Z,35.30
2019-03-12T15:48:21.554Z,35.40
2019-03-12T15:50:47.972Z,35.30
2019-03-12T15:53:15.797Z,35.70
2019-03-12T15:55:43.619Z,35.30
2019-03-12T15:58:11.902Z,35.20
2019-03-12T16:00:39.712Z,35.10
2019-03-12T16:03:07.528Z,35.40
2019-03-12T16:05:35.538Z,36.10
2019-03-12T16:08:03.490Z,36.30
2019-03-12T16:10:31.380Z,36.60
2019-03-12T16:12:59.262Z,36.20
2019-03-12T16:15:27.104Z,37.10
2019-03-12T16:17:54.937Z,37.90
2019-03-12T16:20:23.016Z,38.50
2019-03-12T16:22:50.933Z,39.00
2019-03-12T16:25:18.816Z,39.50
2019-03-12T16:27:46.618Z,40.00
2019-03-12T16:30:14.533Z,39.60
2019-03-12T16:32:42.367Z,40.30
2019-03-12T16:35:10.164Z,40.20
2019-03-12T16:37:37.984Z,40.90
2019-03-12T16:40:05.975Z,41.30
2019-03-12T16:42:35.263Z,42.20
2019-03-12T16:45:03.745Z,42.60
2019-03-12T16:47:31.592Z,42.80
2019-03-12T16:49:59.441Z,43.70
2019-03-12T16:52:27.230Z,44.80
2019-03-12T16:54:57.206Z,44.50
2019-03-12T16:57:25.069Z,45.60
2019-03-12T16:59:52.966Z,46.30
2019-03-12T17:02:20.866Z,47.20
2019-03-12T17:04:48.688Z,48.10
2019-03-12T17:07:16.558Z,48.90
2019-03-12T17:09:44.396Z,50.30
2019-03-12T17:12:12.261Z,51.20
2019-03-12T17:14:40.114Z,53.40
2019-03-12T17:17:07.908Z,56.10
2019-03-12T17:19:35.726Z,58.90
2019-03-12T17:22:03.557Z,65.30
2019-03-12T17:24:31.423Z,71.00
2019-03-12T17:26:59.259Z,78.60
2019-03-12T17:29:27.117Z,82.10
2019-03-12T17:31:54.923Z,88.10
2019-03-12T17:34:34.795Z,90.40
2019-03-12T17:42:20.546Z,95.20
2019-03-12T17:44:48.402Z,95.80
2019-03-12T17:47:16.288Z,96.90
2019-03-12T17:49:44.090Z,97.30
2019-03-12T17:52:11.988Z,97.30
2019-03-12T17:54:39.865Z,97.80
2019-03-12T17:57:07.893Z,97.80
2019-03-12T17:59:35.782Z,98.00
2019-03-12T18:02:03.846Z,98.00
2019-03-12T18:04:33.003Z,98.20
2019-03-12T18:07:00.793Z,98.10
2019-03-12T18:09:28.614Z,98.10
2019-03-12T18:11:56.555Z,97.90
2019-03-12T18:14:24.393Z,98.00
2019-03-12T18:16:52.343Z,97.90
2019-03-12T18:19:20.161Z,98.00
2019-03-12T18:21:47.948Z,97.10
2019-03-12T18:24:15.812Z,96.90
2019-03-12T18:26:43.664Z,95.20
2019-03-12T18:29:11.479Z,94.80
2019-03-12T18:31:39.338Z,94.70
2019-03-12T18:34:07.116Z,94.00
2019-03-12T18:36:34.923Z,94.10
2019-03-12T18:39:04.386Z,93.80
2019-03-12T18:41:32.255Z,92.70
2019-03-12T18:44:00.682Z,92.10
2019-03-12T18:46:28.499Z,92.50
2019-03-12T18:48:56.336Z,90.60
2019-03-12T18:51:24.563Z,90.10
2019-03-12T18:53:52.416Z,88.90
2019-03-12T18:56:20.860Z,87.20
2019-03-12T18:58:49.758Z,87.30
2019-03-12T19:01:17.967Z,85.20
2019-03-12T19:03:45.879Z,83.00
2019-03-12T19:06:13.731Z,84.30
2019-03-12T19:08:47.468Z,83.50
2019-03-12T19:11:11.211Z,81.70
2019-03-12T19:13:40.247Z,83.10
2019-03-12T19:16:08.428Z,83.10
2019-03-12T19:18:36.369Z,82.60
2019-03-12T19:21:04.305Z,82.50
2019-03-12T19:23:32.184Z,85.00
2019-03-12T19:25:59.974Z,83.30
2019-03-12T19:28:27.883Z,83.60
2019-03-12T19:31:06.388Z,83.90
2019-03-12T19:33:34.184Z,83.80
2019-03-12T19:36:01.970Z,84.30
2019-03-12T19:38:30.313Z,84.10
2019-03-12T19:40:58.217Z,84.60
2019-03-12T19:43:26.043Z,85.70
2019-03-12T19:45:53.898Z,87.30
2019-03-12T19:48:21.780Z,87.00
2019-03-12T19:50:49.673Z,87.90
2019-03-12T19:53:18.761Z,90.10
2019-03-12T19:55:46.631Z,91.10
2019-03-12T19:58:14.487Z,92.60
2019-03-12T20:00:43.669Z,93.60
2019-03-12T20:03:15.151Z,94.80
2019-03-12T20:05:41.297Z,95.70
2019-03-12T20:08:09.596Z,97.10
2019-03-12T20:11:46.936Z,98.40
2019-03-12T20:14:55.458Z,99.40
2019-03-12T20:17:56.549Z,99.90
2019-03-12T20:21:00.879Z,99.90
2019-03-12T20:24:06.283Z,99.90
2019-03-12T20:27:29.613Z,99.90
2019-03-12T20:31:00.118Z,99.90
2019-03-12T20:33:46.110Z,99.90
2019-03-12T20:37:20.063Z,99.90
2019-03-12T20:40:24.486Z,99.90
2019-03-12T20:43:34.401Z,99.90
2019-03-12T20:46:44.105Z,99.90
2019-03-12T20:49:55.751Z,99.90
2019-03-12T20:53:04.050Z,99.90
2019-03-12T20:56:16.389Z,99.90
2019-03-12T20:59:33.893Z,99.90
2019-03-12T21:03:03.294Z,99.90
2019-03-12T21:06:21.565Z,99.90
2019-03-12T21:09:31.649Z,99.90
2019-03-12T21:12:37.011Z,99.90
2019-03-12T21:15:49.142Z,99.90
2019-03-12T21:18:40.695Z,99.90
2019-03-12T21:22:04.870Z,99.90
2019-03-12T21:25:20.436Z,99.90
2019-03-12T21:28:23.740Z,99.90
2019-03-12T21:30:51.627Z,99.90
2019-03-12T21:33:19.395Z,99.90
2019-03-12T21:35:47.215Z,99.90
2019-03-12T21:38:15.056Z,99.90
2019-03-12T21:40:42.857Z,99.90
2019-03-12T21:43:10.641Z,99.90
2019-03-12T21:45:38.515Z,99.90
2019-03-12T21:48:06.320Z,99.90
2019-03-12T21:50:34.128Z,99.90
2019-03-12T21:53:01.950Z,99.90
2019-03-12T21:55:29.800Z,99.90
2019-03-12T21:57:57.730Z,99.90
2019-03-12T22:00:25.553Z,99.90
2019-03-12T22:02:53.383Z,99.90
2019-03-12T22:05:21.203Z,99.90
2019-03-12T22:07:49.040Z,99.90
2019-03-12T22:10:16.829Z,99.90
2019-03-12T22:12:44.692Z,99.90
2019-03-12T22:15:12.713Z,99.90
2019-03-12T22:17:40.554Z,99.90
2019-03-12T22:20:09.554Z,99.90
2019-03-12T22:22:44.837Z,99.90
2019-03-12T22:25:12.990Z,99.90
2019-03-12T22:27:40.754Z,99.90
2019-03-12T22:30:15.046Z,99.90
2019-03-12T22:32:42.957Z,99.90
2019-03-12T22:35:10.790Z,99.90
2019-03-12T22:37:38.593Z,99.90
2019-03-12T22:40:08.342Z,99.90
2019-03-12T22:42:36.137Z,99.90
2019-03-12T22:45:04.632Z,99.90
2019-03-12T22:47:32.448Z,99.90
2019-03-12T22:50:00.300Z,99.90
2019-03-12T22:52:28.087Z,99.90
2019-03-12T22:54:56.905Z,99.90
2019-03-12T22:57:24.717Z,99.90
2019-03-12T22:59:52.592Z,99.90
2019-03-12T23:02:20.440Z,99.90
2019-03-12T23:04:50.729Z,99.90
2019-03-12T23:07:18.561Z,99.90
2019-03-12T23:09:46.557Z,99.90
2019-03-12T23:12:16.952Z,99.90
2019-03-12T23:14:44.051Z,99.90
2019-03-12T23:17:11.878Z,99.90
2019-03-12T23:19:39.743Z,99.90
2019-03-12T23:22:07.558Z,99.90
2019-03-12T23:24:35.375Z,99.90
2019-03-12T23:27:03.328Z,99.90
2019-03-12T23:29:31.219Z,99.90
2019-03-12T23:31:59.039Z,99.90
2019-03-12T23:34:26.869Z,99.90
2019-03-12T23:36:54.648Z,99.90
2019-03-12T23:39:22.502Z,99.90
2019-03-12T23:41:50.440Z,99.90
2019-03-12T23:44:18.701Z,99.90
2019-03-12T23:46:47.077Z,99.90
2019-03-12T23:49:15.366Z,99.90
2019-03-12T23:51:43.274Z,99.90
2019-03-12T23:54:11.105Z,99.90
2019-03-12T23:56:39.003Z,99.90
2019-03-12T23:59:06.911Z,99.90
